Terminal Aerodrome Forecast
Issued by NWS St Louis, MO

Home | Current Version | Previous Version | Graphics & Text | Print | Product List | Glossary On
Versions: 1 2 3 4 5 6 7 8 9 10 11 12 13 14 15 16 17 18 19 20 21 22 23 24 25 26 27 28 29 30 31
228
FTUS43 KLSX 270520
TAFSTL
TAF
KSTL 270520Z 2706/2812 28014G20KT 5SM -RA OVC008
      TEMPO 2706/2708 2SM RA BR
     FM270800 29011G19KT P6SM OVC008
     FM271400 28011KT P6SM BKN020
     FM271600 27011KT P6SM SCT050
     FM272300 VRB05KT P6SM SCT130
     FM280600 14007KT P6SM BKN100=

USA.gov is the U.S. government's official web portal to all federal, state and local government web resources and services.